This is the latest recevied weather packets stored in our database for station/object N4OOJ-13. If no packets are shown the sender has not sent any weather packets the latest 10 day(s).
| Time | Temp. | Humidity | Pressure | Rain* | Wind** | Luminosity | Snow |
|---|---|---|---|---|---|---|---|
| 1787937623 | 27.22° C | 90% | 1019.5 hPa | 0 mm | - | - | - |
| 1787937023 | 26.67° C | 90% | 1019.6 hPa | 0 mm | - | - | - |
| 1787936422 | 26.67° C | 92% | 1019.6 hPa | 0 mm | - | - | - |
| 1787935821 | 26.67° C | 94% | 1019.7 hPa | 0 mm | - | - | - |
| 1787935227 | 26.67° C | 94% | 1019.8 hPa | 0 mm | - | - | - |
| 1787934622 | 26.11° C | 97% | 1019.8 hPa | 0 mm | - | - | - |
| 1787934017 | 26.11° C | 96% | 1019.8 hPa | 0 mm | - | - | - |
| 1787933417 | 26.11° C | 96% | 1020 hPa | 0 mm | - | - | - |
| 1787932830 | 26.11° C | 96% | 1020 hPa | 0 mm | - | - | - |
| 1787932226 | 26.11° C | 97% | 1020.1 hPa | 0 mm | - | - | - |
| 1787931618 | 26.11° C | 96% | 1020.1 hPa | 0 mm | - | - | - |
| 1787931031 | 26.11° C | 96% | 1020 hPa | 0 mm | - | - | - |
| 1787930427 | 26.11° C | 96% | 1020 hPa | 0 mm | - | - | - |
| 1787929825 | 26.11° C | 96% | 1019.9 hPa | 0 mm | - | - | - |
| 1787929219 | 26.11° C | 96% | 1019.8 hPa | 0 mm | - | - | - |
| 1787928624 | 26.11° C | 95% | 1019.7 hPa | 0 mm | - | - | - |
| 1787928019 | 26.67° C | 91% | 1019.7 hPa | 0 mm | - | - | - |
| 1787927418 | 26.11° C | 94% | 1019.6 hPa | 0 mm | - | - | - |
| 1787926832 | 25.56° C | 96% | 1019.4 hPa | 0 mm | - | - | - |
| 1787926232 | 25.56° C | 98% | 1019.4 hPa | 0 mm | - | - | - |
| 1787925631 | 25° C | 99% | 1019.3 hPa | 0 mm | - | - | - |
| 1787925030 | 25° C | 99% | 1019.1 hPa | 0 mm | - | - | - |
| 1787924436 | 25° C | 99% | 1019.1 hPa | 0 mm | - | - | - |
| 1787923832 | 25° C | 99% | 1019 hPa | 0 mm | - | - | - |
| 1787923227 | 24.44° C | 99% | 1018.8 hPa | 0 mm | - | - | - |
* Rain latest hour (hover to see other rain measurements)
** Current wind speed in m/s (hover to see current wind gust speed)